| time (UTC) | temp F | wind direction | speed MPH | gust MPH | rain 1hr in | rain 24hr in | rain mn in | humidity % | barometer mb |
| 20260508004102 | 44 | 290 | 0.0 | 0.0 | 0.00 | 0.01 | 0.01 | 58 | 1012.9 |
| 20260508003558 | 44 | 315 | 0.0 | 0.0 | 0.00 | 0.01 | 0.01 | 57 | 1012.7 |
| 20260508003056 | 45 | 306 | 0.0 | 0.0 | 0.00 | 0.01 | 0.01 | 56 | 1012.9 |
| 20260508002552 | 45 | 301 | 0.0 | 0.0 | 0.00 | 0.01 | 0.01 | 56 | 1012.6 |
| 20260508002050 | 45 | 291 | 0.0 | 0.0 | 0.00 | 0.01 | 0.01 | 55 | 1012.6 |
| 20260508001545 | 46 | 323 | 0.0 | 0.0 | 0.00 | 0.01 | 0.01 | 54 | 1012.7 |
| 20260508001041 | 46 | 335 | 0.0 | 0.0 | 0.00 | 0.01 | 0.01 | 55 | 1012.2 |
| 20260508000537 | 47 | 294 | 0.0 | 1.0 | 0.00 | 0.01 | 0.01 | 54 | 1012.4 |
| 20260508000035 | 48 | 285 | 4.0 | 6.0 | 0.00 | 0.01 | 0.01 | 51 | 1012.4 |
| 20260507235531 | 49 | 292 | 3.0 | 8.0 | 0.00 | 0.01 | 0.01 | 50 | 1012.2 |
| 20260507235029 | 49 | 287 | 6.0 | 7.0 | 0.00 | 0.01 | 0.01 | 49 | 1012.2 |
| 20260507234525 | 50 | 281 | 4.0 | 6.0 | 0.00 | 0.01 | 0.01 | 48 | 1012.1 |
| 20260507234022 | 50 | 317 | 5.0 | 7.0 | 0.00 | 0.01 | 0.01 | 47 | 1012.2 |
| 20260507233518 | 51 | 344 | 5.0 | 10.0 | 0.00 | 0.01 | 0.01 | 46 | 1012.2 |
| 20260507233017 | 51 | 341 | 4.0 | 7.0 | 0.00 | 0.01 | 0.01 | 47 | 1012.1 |
| 20260507232513 | 51 | 266 | 7.0 | 7.0 | 0.00 | 0.01 | 0.01 | 46 | 1012.1 |
| 20260507232010 | 51 | 317 | 6.0 | 10.0 | 0.00 | 0.01 | 0.01 | 46 | 1012.5 |
| 20260507231507 | 52 | 302 | 10.0 | 13.0 | 0.00 | 0.01 | 0.01 | 44 | 1012.1 |
| 20260507231004 | 52 | 293 | 7.0 | 11.0 | 0.00 | 0.01 | 0.01 | 45 | 1012.0 |
| 20260507230501 | 52 | 317 | 6.0 | 11.0 | 0.00 | 0.01 | 0.01 | 46 | 1012.0 |
| 20260507225956 | 52 | 317 | 5.0 | 10.0 | 0.00 | 0.01 | 0.01 | 47 | 1012.1 |
| 20260507225452 | 52 | 309 | 5.0 | 9.0 | 0.00 | 0.01 | 0.01 | 47 | 1011.9 |
| 20260507224948 | 52 | 309 | 6.0 | 13.0 | 0.00 | 0.01 | 0.01 | 47 | 1012.1 |
| 20260507224439 | 52 | 265 | 9.0 | 11.0 | 0.00 | 0.01 | 0.01 | 45 | 1011.9 |
| 20260507223936 | 52 | 313 | 12.0 | 18.0 | 0.00 | 0.01 | 0.01 | 46 | 1012.1 |
| 20260507223432 | 53 | 358 | 7.0 | 13.0 | 0.00 | 0.01 | 0.01 | 47 | 1012.0 |
| 20260507222929 | 52 | 334 | 7.0 | 10.0 | 0.00 | 0.01 | 0.01 | 47 | 1011.8 |
| 20260507222425 | 52 | 321 | 7.0 | 10.0 | 0.00 | 0.01 | 0.01 | 46 | 1012.1 |
| 20260507221922 | 53 | 332 | 10.0 | 14.0 | 0.00 | 0.01 | 0.01 | 46 | 1011.9 |
| 20260507221418 | 53 | 277 | 12.0 | 18.0 | 0.00 | 0.01 | 0.01 | 45 | 1012.1 |
| 20260507220914 | 54 | 343 | 9.0 | 13.0 | 0.00 | 0.01 | 0.01 | 45 | 1012.4 |
| 20260507220413 | 53 | 350 | 8.0 | 20.0 | 0.00 | 0.01 | 0.01 | 47 | 1012.1 |
| 20260507215909 | 54 | 2 | 7.0 | 14.0 | 0.00 | 0.01 | 0.01 | 46 | 1012.1 |
| 20260507215406 | 54 | 262 | 8.0 | 13.0 | 0.00 | 0.01 | 0.01 | 48 | 1012.1 |
| 20260507214903 | 55 | 347 | 3.0 | 10.0 | 0.00 | 0.01 | 0.01 | 47 | 1012.1 |
| 20260507214401 | 54 | 355 | 7.0 | 9.0 | 0.00 | 0.01 | 0.01 | 45 | 1012.1 |
| 20260507213856 | 54 | 277 | 11.0 | 17.0 | 0.00 | 0.01 | 0.01 | 41 | 1011.9 |
| 20260507213353 | 54 | 305 | 12.0 | 17.0 | 0.00 | 0.01 | 0.01 | 40 | 1012.1 |
| 20260507212850 | 54 | 307 | 8.0 | 17.0 | 0.00 | 0.01 | 0.01 | 41 | 1012.2 |
| 20260507212345 | 54 | 316 | 11.0 | 17.0 | 0.00 | 0.01 | 0.01 | 39 | 1012.0 |
| 20260507211842 | 54 | 10 | 11.0 | 15.0 | 0.00 | 0.01 | 0.01 | 41 | 1012.3 |
| 20260507211338 | 54 | 326 | 10.0 | 20.0 | 0.00 | 0.01 | 0.01 | 41 | 1012.2 |
| 20260507210835 | 54 | 325 | 15.0 | 25.0 | 0.00 | 0.01 | 0.01 | 41 | 1012.2 |
| 20260507210332 | 54 | 322 | 7.0 | 24.0 | 0.00 | 0.01 | 0.01 | 42 | 1011.9 |
| 20260507205829 | 54 | 277 | 19.0 | 25.0 | 0.00 | 0.01 | 0.01 | 41 | 1012.2 |
| 20260507205326 | 53 | 334 | 8.0 | 18.0 | 0.00 | 0.01 | 0.01 | 44 | 1012.1 |
| 20260507204821 | 54 | 289 | 9.0 | 16.0 | 0.00 | 0.01 | 0.01 | 42 | 1012.1 |
| 20260507204319 | 54 | 313 | 13.0 | 17.0 | 0.00 | 0.01 | 0.01 | 41 | 1012.4 |
| 20260507203817 | 54 | 345 | 14.0 | 18.0 | 0.00 | 0.01 | 0.01 | 43 | 1012.4 |
| 20260507203315 | 54 | 285 | 9.0 | 22.0 | 0.00 | 0.01 | 0.01 | 44 | 1012.0 |
| 20260507202811 | 54 | 324 | 12.0 | 15.0 | 0.00 | 0.01 | 0.01 | 45 | 1012.2 |
| 20260507202307 | 53 | 334 | 11.0 | 18.0 | 0.00 | 0.01 | 0.01 | 44 | 1012.2 |
| 20260507201802 | 54 | 253 | 11.0 | 15.0 | 0.00 | 0.01 | 0.01 | 45 | 1012.3 |
| 20260507201258 | 55 | 320 | 11.0 | 17.0 | 0.00 | 0.01 | 0.01 | 46 | 1012.4 |
| 20260507200755 | 55 | 284 | 16.0 | 22.0 | 0.00 | 0.01 | 0.01 | 44 | 1012.3 |
| 20260507200251 | 54 | 346 | 7.0 | 15.0 | 0.00 | 0.01 | 0.01 | 46 | 1012.5 |
| 20260507195747 | 53 | 228 | 6.0 | 17.0 | 0.00 | 0.01 | 0.01 | 47 | 1012.6 |
| 20260507195245 | 54 | 295 | 10.0 | 16.0 | 0.00 | 0.01 | 0.01 | 47 | 1012.6 |
| 20260507194742 | 52 | 307 | 11.0 | 22.0 | 0.00 | 0.01 | 0.01 | 47 | 1012.6 |
| 20260507194238 | 53 | 301 | 13.0 | 18.0 | 0.00 | 0.01 | 0.01 | 48 | 1012.6 |
| 20260507193734 | 53 | 287 | 9.0 | 16.0 | 0.00 | 0.01 | 0.01 | 46 | 1012.6 |
| 20260507193231 | 53 | 295 | 13.0 | 17.0 | 0.00 | 0.01 | 0.01 | 46 | 1012.8 |
| 20260507192727 | 53 | 305 | 10.0 | 20.0 | 0.00 | 0.01 | 0.01 | 49 | 1012.7 |
| 20260507192224 | 53 | 336 | 7.0 | 17.0 | 0.00 | 0.01 | 0.01 | 49 | 1012.8 |
| 20260507191720 | 53 | 323 | 9.0 | 13.0 | 0.00 | 0.01 | 0.01 | 52 | 1012.8 |
| 20260507191212 | 52 | 307 | 9.0 | 13.0 | 0.00 | 0.01 | 0.01 | 52 | 1012.9 |
| 20260507190709 | 52 | 339 | 12.0 | 18.0 | 0.00 | 0.01 | 0.01 | 50 | 1012.8 |
| 20260507190208 | 51 | 303 | 8.0 | 17.0 | 0.00 | 0.01 | 0.01 | 51 | 1013.3 |
| 20260507185705 | 53 | 304 | 5.0 | 14.0 | 0.00 | 0.01 | 0.01 | 53 | 1013.1 |
| 20260507185157 | 54 | 285 | 15.0 | 18.0 | 0.00 | 0.01 | 0.01 | 49 | 1013.0 |
| 20260507184654 | 54 | 319 | 7.0 | 15.0 | 0.00 | 0.01 | 0.01 | 53 | 1013.1 |
| 20260507184152 | 53 | 304 | 8.0 | 13.0 | 0.00 | 0.01 | 0.01 | 50 | 1013.2 |
| 20260507183647 | 54 | 283 | 9.0 | 14.0 | 0.00 | 0.01 | 0.01 | 50 | 1013.2 |
| 20260507183145 | 53 | 317 | 9.0 | 16.0 | 0.00 | 0.01 | 0.01 | 53 | 1013.3 |
| 20260507182642 | 53 | 296 | 6.0 | 15.0 | 0.00 | 0.01 | 0.01 | 53 | 1013.4 |
| 20260507182137 | 54 | 284 | 6.0 | 11.0 | 0.00 | 0.01 | 0.01 | 53 | 1013.3 |
| 20260507181634 | 53 | 327 | 10.0 | 17.0 | 0.00 | 0.01 | 0.01 | 53 | 1013.2 |
| 20260507181130 | 53 | 300 | 11.0 | 16.0 | 0.00 | 0.01 | 0.01 | 53 | 1013.4 |
| 20260507180626 | 53 | 332 | 9.0 | 22.0 | 0.00 | 0.01 | 0.01 | 52 | 1013.7 |
| 20260507180124 | 53 | 310 | 11.0 | 17.0 | 0.00 | 0.01 | 0.01 | 54 | 1013.5 |
| 20260507175619 | 52 | 255 | 9.0 | 17.0 | 0.00 | 0.01 | 0.01 | 53 | 1013.9 |
| 20260507175117 | 52 | 295 | 15.0 | 21.0 | 0.00 | 0.01 | 0.01 | 55 | 1013.6 |
| 20260507174614 | 51 | 287 | 16.0 | 21.0 | 0.00 | 0.01 | 0.01 | 56 | 1013.4 |
| 20260507174112 | 52 | 306 | 9.0 | 18.0 | 0.00 | 0.01 | 0.01 | 57 | 1013.7 |
| 20260507173609 | 52 | 345 | 12.0 | 18.0 | 0.00 | 0.01 | 0.01 | 56 | 1013.6 |
| 20260507173106 | 52 | 279 | 6.0 | 11.0 | 0.00 | 0.01 | 0.01 | 55 | 1013.5 |
| 20260507172601 | 52 | 326 | 12.0 | 16.0 | 0.00 | 0.01 | 0.01 | 59 | 1013.7 |
| 20260507172059 | 51 | 300 | 7.0 | 18.0 | 0.00 | 0.01 | 0.01 | 56 | 1013.9 |
| 20260507171554 | 51 | 314 | 8.0 | 14.0 | 0.00 | 0.01 | 0.01 | 58 | 1014.0 |
| 20260507171051 | 50 | 301 | 9.0 | 16.0 | 0.00 | 0.01 | 0.01 | 58 | 1013.9 |
| 20260507170548 | 50 | 265 | 8.0 | 11.0 | 0.00 | 0.01 | 0.01 | 59 | 1013.9 |
| 20260507170045 | 50 | 296 | 11.0 | 14.0 | 0.00 | 0.01 | 0.01 | 58 | 1014.2 |
| 20260507165541 | 50 | 307 | 8.0 | 15.0 | 0.00 | 0.01 | 0.01 | 59 | 1014.1 |
| 20260507165032 | 50 | 320 | 9.0 | 11.0 | 0.00 | 0.01 | 0.01 | 60 | 1014.1 |
| 20260507164528 | 50 | 348 | 5.0 | 15.0 | 0.00 | 0.01 | 0.01 | 60 | 1014.1 |
| 20260507164025 | 50 | 272 | 5.0 | 9.0 | 0.00 | 0.01 | 0.01 | 61 | 1014.2 |
| 20260507163522 | 50 | 300 | 11.0 | 15.0 | 0.00 | 0.01 | 0.01 | 60 | 1014.4 |
| 20260507163020 | 50 | 305 | 6.0 | 8.0 | 0.00 | 0.01 | 0.01 | 63 | 1014.0 |
| 20260507162515 | 51 | 303 | 7.0 | 10.0 | 0.00 | 0.01 | 0.01 | 60 | 1014.1 |
| 20260507162012 | 51 | 19 | 8.0 | 11.0 | 0.00 | 0.01 | 0.01 | 59 | 1014.3 |
| 20260507161508 | 49 | 331 | 9.0 | 14.0 | 0.00 | 0.01 | 0.01 | 61 | 1014.3 |
| 20260507161005 | 50 | 300 | 8.0 | 10.0 | 0.00 | 0.01 | 0.01 | 60 | 1014.2 |
| 20260507160501 | 51 | 332 | 6.0 | 14.0 | 0.00 | 0.01 | 0.01 | 61 | 1014.5 |
| 20260507155956 | 50 | 297 | 9.0 | 13.0 | 0.00 | 0.01 | 0.01 | 61 | 1014.2 |
| 20260507155453 | 51 | 251 | 6.0 | 13.0 | 0.00 | 0.01 | 0.01 | 58 | 1014.4 |
| 20260507154950 | 51 | 316 | 9.0 | 13.0 | 0.00 | 0.01 | 0.01 | 62 | 1014.6 |
| 20260507154447 | 50 | 277 | 11.0 | 15.0 | 0.00 | 0.01 | 0.01 | 57 | 1014.6 |
| 20260507153944 | 50 | 293 | 8.0 | 17.0 | 0.00 | 0.01 | 0.01 | 57 | 1014.8 |
| 20260507153441 | 51 | 246 | 5.0 | 10.0 | 0.00 | 0.01 | 0.01 | 59 | 1014.9 |
| 20260507152937 | 50 | 307 | 7.0 | 11.0 | 0.00 | 0.01 | 0.01 | 61 | 1014.7 |
| 20260507152433 | 50 | 329 | 9.0 | 14.0 | 0.00 | 0.01 | 0.01 | 61 | 1014.8 |
| 20260507151929 | 50 | 329 | 12.0 | 18.0 | 0.00 | 0.01 | 0.01 | 59 | 1014.7 |
| 20260507151426 | 50 | 287 | 10.0 | 17.0 | 0.00 | 0.01 | 0.01 | 58 | 1014.8 |
| 20260507150922 | 50 | 338 | 7.0 | 8.0 | 0.00 | 0.01 | 0.01 | 62 | 1014.8 |
| 20260507150420 | 50 | 332 | 9.0 | 11.0 | 0.00 | 0.01 | 0.01 | 61 | 1014.8 |
| 20260507145916 | 49 | 320 | 9.0 | 15.0 | 0.00 | 0.01 | 0.01 | 61 | 1015.0 |
| 20260507145412 | 48 | 328 | 7.0 | 15.0 | 0.00 | 0.01 | 0.01 | 61 | 1014.9 |
| 20260507144909 | 48 | 327 | 13.0 | 18.0 | 0.00 | 0.01 | 0.01 | 59 | 1014.9 |
| 20260507144406 | 48 | 318 | 8.0 | 14.0 | 0.00 | 0.01 | 0.01 | 61 | 1015.0 |
| 20260507143903 | 48 | 315 | 9.0 | 16.0 | 0.00 | 0.01 | 0.01 | 62 | 1015.1 |
| 20260507143400 | 48 | 295 | 14.0 | 17.0 | 0.00 | 0.01 | 0.01 | 62 | 1014.7 |
| 20260507142856 | 49 | 300 | 9.0 | 11.0 | 0.00 | 0.01 | 0.01 | 62 | 1014.9 |
| 20260507142352 | 48 | 331 | 8.0 | 14.0 | 0.00 | 0.01 | 0.01 | 62 | 1014.9 |
| 20260507141849 | 47 | 315 | 8.0 | 15.0 | 0.00 | 0.01 | 0.01 | 62 | 1015.0 |
| 20260507141346 | 48 | 309 | 11.0 | 18.0 | 0.00 | 0.01 | 0.01 | 61 | 1015.0 |
| 20260507140843 | 48 | 324 | 10.0 | 15.0 | 0.00 | 0.01 | 0.01 | 65 | 1015.1 |
| 20260507140339 | 47 | 339 | 6.0 | 10.0 | 0.00 | 0.01 | 0.01 | 66 | 1015.0 |
| 20260507135837 | 46 | 358 | 5.0 | 13.0 | 0.00 | 0.01 | 0.01 | 65 | 1014.9 |
| 20260507135334 | 47 | 13 | 7.0 | 9.0 | 0.00 | 0.01 | 0.01 | 65 | 1014.9 |
| 20260507134832 | 46 | 294 | 11.0 | 16.0 | 0.00 | 0.01 | 0.01 | 65 | 1014.9 |
| 20260507134328 | 45 | 320 | 6.0 | 11.0 | 0.00 | 0.01 | 0.01 | 65 | 1015.1 |
| 20260507133824 | 46 | 289 | 9.0 | 11.0 | 0.00 | 0.01 | 0.01 | 67 | 1015.1 |
| 20260507133319 | 45 | 308 | 8.0 | 11.0 | 0.00 | 0.01 | 0.01 | 68 | 1015.1 |
| 20260507132817 | 46 | 302 | 7.0 | 17.0 | 0.00 | 0.01 | 0.01 | 68 | 1015.3 |
| 20260507132308 | 46 | 8 | 8.0 | 11.0 | 0.00 | 0.01 | 0.01 | 67 | 1015.3 |
| 20260507131805 | 45 | 324 | 9.0 | 11.0 | 0.00 | 0.01 | 0.01 | 69 | 1015.2 |
| 20260507131302 | 45 | 303 | 7.0 | 13.0 | 0.00 | 0.01 | 0.01 | 69 | 1015.3 |
| 20260507130759 | 45 | 310 | 5.0 | 10.0 | 0.00 | 0.01 | 0.01 | 71 | 1015.2 |
| 20260507130257 | 44 | 330 | 5.0 | 13.0 | 0.00 | 0.01 | 0.01 | 70 | 1015.1 |
| 20260507125755 | 44 | 349 | 4.0 | 7.0 | 0.00 | 0.01 | 0.01 | 73 | 1015.2 |
| 20260507125253 | 44 | 324 | 10.0 | 11.0 | 0.00 | 0.01 | 0.01 | 73 | 1015.2 |
| 20260507124749 | 44 | 299 | 6.0 | 9.0 | 0.00 | 0.01 | 0.01 | 72 | 1015.1 |
| 20260507124245 | 43 | 325 | 8.0 | 15.0 | 0.00 | 0.01 | 0.01 | 73 | 1015.3 |
| 20260507123744 | 43 | 304 | 11.0 | 15.0 | 0.00 | 0.01 | 0.01 | 74 | 1015.1 |
| 20260507123241 | 43 | 327 | 7.0 | 14.0 | 0.00 | 0.01 | 0.01 | 74 | 1015.1 |
| 20260507122736 | 43 | 324 | 6.0 | 10.0 | 0.00 | 0.01 | 0.01 | 75 | 1014.9 |
| 20260507122232 | 42 | 328 | 8.0 | 11.0 | 0.00 | 0.01 | 0.01 | 75 | 1014.9 |
| 20260507121728 | 43 | 330 | 6.0 | 11.0 | 0.00 | 0.01 | 0.01 | 77 | 1014.7 |
| 20260507121224 | 42 | 331 | 6.0 | 10.0 | 0.00 | 0.01 | 0.01 | 77 | 1014.9 |
| 20260507120720 | 42 | 256 | 6.0 | 11.0 | 0.00 | 0.01 | 0.01 | 75 | 1014.8 |
| 20260507120218 | 42 | 271 | 7.0 | 9.0 | 0.00 | 0.01 | 0.01 | 75 | 1014.8 |
| 20260507115713 | 42 | 287 | 6.0 | 8.0 | 0.00 | 0.01 | 0.01 | 74 | 1014.9 |
| 20260507115209 | 42 | 272 | 8.0 | 11.0 | 0.00 | 0.01 | 0.01 | 76 | 1014.8 |
| 20260507114706 | 41 | 299 | 10.0 | 11.0 | 0.00 | 0.01 | 0.01 | 76 | 1014.8 |
| 20260507114203 | 41 | 282 | 8.0 | 13.0 | 0.00 | 0.01 | 0.01 | 76 | 1014.9 |
| 20260507113700 | 41 | 317 | 8.0 | 11.0 | 0.00 | 0.01 | 0.01 | 76 | 1014.7 |
| 20260507113157 | 41 | 321 | 7.0 | 10.0 | 0.00 | 0.01 | 0.01 | 77 | 1014.7 |
| 20260507112655 | 41 | 302 | 9.0 | 15.0 | 0.00 | 0.01 | 0.01 | 76 | 1014.8 |
| 20260507112151 | 41 | 304 | 7.0 | 8.0 | 0.00 | 0.01 | 0.01 | 78 | 1014.7 |
| 20260507111649 | 41 | 305 | 8.0 | 8.0 | 0.00 | 0.01 | 0.01 | 78 | 1014.9 |
| 20260507111145 | 40 | 339 | 7.0 | 8.0 | 0.00 | 0.01 | 0.01 | 79 | 1015.0 |
| 20260507110641 | 40 | 300 | 7.0 | 11.0 | 0.00 | 0.01 | 0.01 | 79 | 1014.9 |
| 20260507110138 | 40 | 304 | 8.0 | 9.0 | 0.00 | 0.01 | 0.01 | 80 | 1014.5 |
| 20260507105635 | 40 | 287 | 6.0 | 9.0 | 0.00 | 0.01 | 0.01 | 80 | 1014.6 |
| 20260507105131 | 39 | 279 | 7.0 | 9.0 | 0.00 | 0.01 | 0.01 | 81 | 1014.6 |
| 20260507104628 | 39 | 284 | 4.0 | 10.0 | 0.00 | 0.01 | 0.01 | 82 | 1014.3 |
| 20260507104124 | 39 | 314 | 5.0 | 8.0 | 0.00 | 0.01 | 0.01 | 81 | 1014.3 |
| 20260507103620 | 39 | 323 | 5.0 | 7.0 | 0.00 | 0.01 | 0.01 | 82 | 1014.3 |
| 20260507103117 | 39 | 288 | 5.0 | 7.0 | 0.00 | 0.01 | 0.01 | 82 | 1014.3 |
| 20260507102614 | 39 | 289 | 6.0 | 9.0 | 0.00 | 0.01 | 0.01 | 82 | 1014.3 |
| 20260507102110 | 38 | 291 | 6.0 | 9.0 | 0.00 | 0.01 | 0.01 | 83 | 1014.5 |
| 20260507101606 | 38 | 318 | 5.0 | 6.0 | 0.00 | 0.01 | 0.01 | 84 | 1014.4 |
| 20260507101102 | 38 | 279 | 6.0 | 8.0 | 0.00 | 0.01 | 0.01 | 84 | 1014.2 |
| 20260507100559 | 38 | 313 | 7.0 | 10.0 | 0.00 | 0.01 | 0.01 | 85 | 1014.0 |
| 20260507100058 | 38 | 309 | 6.0 | 8.0 | 0.00 | 0.01 | 0.01 | 86 | 1014.2 |
| 20260507095555 | 38 | 305 | 4.0 | 9.0 | 0.00 | 0.01 | 0.01 | 86 | 1014.3 |
| 20260507095047 | 38 | 281 | 5.0 | 10.0 | 0.00 | 0.01 | 0.01 | 86 | 1014.1 |
| 20260507094543 | 39 | 302 | 6.0 | 9.0 | 0.00 | 0.01 | 0.01 | 86 | 1014.2 |
| 20260507094040 | 39 | 306 | 5.0 | 9.0 | 0.00 | 0.01 | 0.01 | 86 | 1014.3 |
| 20260507093537 | 39 | 325 | 7.0 | 10.0 | 0.00 | 0.01 | 0.01 | 88 | 1014.0 |
| 20260507093036 | 39 | 307 | 5.0 | 7.0 | 0.00 | 0.01 | 0.01 | 89 | 1014.3 |
| 20260507092532 | 39 | 234 | 5.0 | 7.0 | 0.00 | 0.01 | 0.01 | 90 | 1014.3 |
| 20260507092029 | 39 | 311 | 2.0 | 10.0 | 0.00 | 0.01 | 0.01 | 90 | 1014.5 |
| 20260507091526 | 39 | 333 | 3.0 | 7.0 | 0.00 | 0.01 | 0.01 | 90 | 1014.2 |
| 20260507091022 | 39 | 295 | 5.0 | 7.0 | 0.00 | 0.01 | 0.01 | 90 | 1014.2 |
| 20260507090517 | 39 | 306 | 5.0 | 7.0 | 0.00 | 0.01 | 0.01 | 89 | 1014.1 |
| 20260507090015 | 39 | 327 | 4.0 | 6.0 | 0.00 | 0.01 | 0.01 | 89 | 1014.2 |
| 20260507085512 | 40 | 277 | 5.0 | 11.0 | 0.00 | 0.01 | 0.01 | 90 | 1014.1 |
| 20260507085008 | 40 | 337 | 4.0 | 8.0 | 0.00 | 0.01 | 0.01 | 90 | 1013.9 |
| 20260507084505 | 40 | 302 | 8.0 | 11.0 | 0.00 | 0.01 | 0.01 | 91 | 1014.0 |
| 20260507084002 | 41 | 296 | 5.0 | 6.0 | 0.00 | 0.01 | 0.01 | 90 | 1014.0 |
| 20260507083458 | 41 | 253 | 5.0 | 8.0 | 0.00 | 0.01 | 0.01 | 90 | 1014.0 |
| 20260507082955 | 41 | 309 | 8.0 | 10.0 | 0.00 | 0.01 | 0.01 | 90 | 1014.0 |
| 20260507082451 | 41 | 298 | 7.0 | 10.0 | 0.00 | 0.01 | 0.01 | 91 | 1014.0 |
| 20260507081947 | 41 | 318 | 6.0 | 11.0 | 0.00 | 0.01 | 0.01 | 91 | 1014.2 |
| 20260507081444 | 42 | 275 | 9.0 | 10.0 | 0.00 | 0.01 | 0.01 | 91 | 1014.3 |
| 20260507080941 | 42 | 297 | 5.0 | 11.0 | 0.00 | 0.01 | 0.01 | 91 | 1014.3 |
| 20260507080437 | 42 | 297 | 3.0 | 8.0 | 0.00 | 0.01 | 0.01 | 91 | 1014.2 |
| 20260507075932 | 42 | 309 | 5.0 | 7.0 | 0.00 | 0.01 | 0.01 | 91 | 1014.0 |
| 20260507075428 | 42 | 304 | 5.0 | 9.0 | 0.00 | 0.01 | 0.01 | 91 | 1014.1 |
| 20260507074920 | 42 | 313 | 7.0 | 11.0 | 0.00 | 0.01 | 0.01 | 91 | 1014.0 |
| 20260507074416 | 42 | 322 | 8.0 | 8.0 | 0.00 | 0.01 | 0.01 | 91 | 1014.0 |
| 20260507073909 | 42 | 292 | 6.0 | 7.0 | 0.00 | 0.01 | 0.01 | 91 | 1014.0 |
| 20260507073405 | 42 | 304 | 5.0 | 6.0 | 0.00 | 0.01 | 0.01 | 91 | 1014.1 |
| 20260507072902 | 42 | 304 | 8.0 | 13.0 | 0.00 | 0.01 | 0.01 | 91 | 1014.2 |
| 20260507072359 | 42 | 310 | 7.0 | 7.0 | 0.00 | 0.01 | 0.01 | 91 | 1014.3 |
| 20260507071856 | 42 | 303 | 6.0 | 9.0 | 0.00 | 0.01 | 0.01 | 91 | 1014.3 |
| 20260507071353 | 42 | 318 | 6.0 | 7.0 | 0.00 | 0.01 | 0.01 | 91 | 1014.1 |
| 20260507070849 | 42 | 286 | 3.0 | 8.0 | 0.00 | 0.01 | 0.01 | 91 | 1014.0 |
| 20260507070347 | 42 | 304 | 6.0 | 9.0 | 0.00 | 0.01 | 0.01 | 92 | 1014.1 |
| 20260507065844 | 42 | 268 | 8.0 | 9.0 | 0.00 | 0.01 | 0.01 | 92 | 1014.0 |
| 20260507065340 | 43 | 316 | 5.0 | 6.0 | 0.00 | 0.01 | 0.01 | 93 | 1014.1 |
| 20260507064838 | 43 | 309 | 13.0 | 20.0 | 0.00 | 0.01 | 0.01 | 93 | 1014.1 |
| 20260507064336 | 43 | 325 | 4.0 | 7.0 | 0.00 | 0.01 | 0.01 | 93 | 1014.2 |
| 20260507063833 | 43 | 307 | 8.0 | 10.0 | 0.00 | 0.01 | 0.01 | 93 | 1014.1 |
| 20260507063330 | 43 | 287 | 8.0 | 9.0 | 0.00 | 0.01 | 0.01 | 94 | 1014.1 |
| 20260507062827 | 43 | 310 | 7.0 | 9.0 | 0.00 | 0.01 | 0.01 | 94 | 1013.7 |
| 20260507062324 | 43 | 306 | 8.0 | 11.0 | 0.00 | 0.01 | 0.01 | 94 | 1013.7 |
| 20260507061822 | 43 | 276 | 7.0 | 13.0 | 0.00 | 0.01 | 0.01 | 94 | 1013.7 |
| 20260507061320 | 44 | 320 | 6.0 | 10.0 | 0.00 | 0.01 | 0.01 | 94 | 1013.9 |
| 20260507060818 | 44 | 324 | 10.0 | 13.0 | 0.00 | 0.01 | 0.01 | 93 | 1013.9 |
| 20260507060314 | 44 | 312 | 11.0 | 14.0 | 0.00 | 0.01 | 0.01 | 93 | 1014.0 |
| 20260507055811 | 44 | 310 | 6.0 | 8.0 | 0.00 | 0.01 | 0.01 | 93 | 1013.9 |
| 20260507055306 | 44 | 302 | 4.0 | 8.0 | 0.00 | 0.01 | 0.01 | 93 | 1014.0 |
| 20260507054803 | 44 | 292 | 4.0 | 7.0 | 0.00 | 0.01 | 0.01 | 93 | 1014.0 |
| 20260507054259 | 44 | 243 | 6.0 | 7.0 | 0.00 | 0.01 | 0.01 | 93 | 1013.6 |
| 20260507053756 | 44 | 281 | 7.0 | 9.0 | 0.00 | 0.01 | 0.01 | 93 | 1014.0 |
| 20260507053254 | 44 | 285 | 6.0 | 8.0 | 0.00 | 0.01 | 0.01 | 93 | 1013.9 |
| 20260507052753 | 44 | 273 | 7.0 | 8.0 | 0.00 | 0.01 | 0.01 | 93 | 1013.7 |
| 20260507052249 | 44 | 302 | 5.0 | 6.0 | 0.00 | 0.01 | 0.01 | 93 | 1014.0 |
| 20260507051747 | 44 | 325 | 4.0 | 5.0 | 0.00 | 0.01 | 0.01 | 93 | 1014.0 |
| 20260507051244 | 44 | 286 | 4.0 | 5.0 | 0.00 | 0.01 | 0.01 | 93 | 1014.1 |
| 20260507050741 | 44 | 288 | 3.0 | 3.0 | 0.00 | 0.01 | 0.01 | 93 | 1014.2 |
| 20260507050237 | 44 | 292 | 3.0 | 3.0 | 0.00 | 0.01 | 0.01 | 94 | 1014.0 |
| 20260507045734 | 44 | 312 | 6.0 | 8.0 | 0.00 | 0.01 | 0.01 | 94 | 1013.9 |
| 20260507045230 | 44 | 319 | 0.0 | 1.0 | 0.00 | 0.01 | 0.01 | 94 | 1013.5 |
| 20260507044728 | 44 | 255 | 3.0 | 3.0 | 0.00 | 0.01 | 0.01 | 94 | 1013.5 |
| 20260507044224 | 44 | 305 | 2.0 | 3.0 | 0.00 | 0.01 | 0.01 | 94 | 1013.7 |
| 20260507043720 | 44 | 327 | 1.0 | 2.0 | 0.00 | 0.01 | 0.01 | 94 | 1013.9 |
| 20260507043217 | 44 | 313 | 2.0 | 2.0 | 0.00 | 0.01 | 0.01 | 94 | 1013.7 |
| 20260507042714 | 44 | 309 | 2.0 | 3.0 | 0.00 | 0.01 | 0.01 | 94 | 1013.7 |
| 20260507042208 | 44 | 312 | 3.0 | 5.0 | 0.00 | 0.01 | 0.01 | 94 | 1013.9 |
| 20260507041706 | 44 | 299 | 1.0 | 1.0 | 0.07 | 0.01 | 0.01 | 94 | 1013.7 |
| 20260507041202 | 44 | 342 | 1.0 | 3.0 | 0.07 | 0.01 | 0.01 | 94 | 1013.6 |
| 20260507040659 | 44 | 305 | 2.0 | 5.0 | 0.00 | 0.00 | 0.00 | 94 | 1013.9 |
| 20260507040155 | 44 | 329 | 1.0 | 2.0 | 0.00 | 0.00 | 0.00 | 94 | 1013.9 |
| 20260507035651 | 44 | 326 | 2.0 | 2.0 | 0.00 | 0.34 | 0.34 | 94 | 1014.3 |
| 20260507035147 | 44 | 308 | 3.0 | 3.0 | 0.00 | 0.34 | 0.34 | 94 | 1014.1 |
| 20260507034644 | 44 | 319 | 1.0 | 2.0 | 0.00 | 0.34 | 0.34 | 94 | 1013.9 |
| 20260507034142 | 44 | 322 | 2.0 | 2.0 | 0.00 | 0.34 | 0.34 | 94 | 1013.9 |
| 20260507033640 | 44 | 323 | 1.0 | 1.0 | 0.00 | 0.34 | 0.34 | 94 | 1013.6 |
| 20260507033137 | 44 | 311 | 2.0 | 2.0 | 0.00 | 0.34 | 0.34 | 94 | 1013.9 |
| 20260507032635 | 44 | 322 | 1.0 | 2.0 | 0.00 | 0.34 | 0.34 | 94 | 1013.7 |
| 20260507032130 | 44 | 285 | 1.0 | 2.0 | 0.00 | 0.34 | 0.34 | 94 | 1013.9 |
| 20260507031627 | 44 | 334 | 0.0 | 1.0 | 0.00 | 0.34 | 0.34 | 94 | 1014.0 |
| 20260507031124 | 45 | 310 | 2.0 | 2.0 | 0.00 | 0.34 | 0.34 | 94 | 1014.0 |
| 20260507030620 | 45 | 311 | 3.0 | 3.0 | 0.00 | 0.34 | 0.34 | 94 | 1013.9 |
| 20260507030118 | 45 | 319 | 3.0 | 5.0 | 0.00 | 0.34 | 0.34 | 94 | 1014.0 |
| 20260507025615 | 45 | 327 | 3.0 | 5.0 | 0.00 | 0.34 | 0.34 | 94 | 1014.0 |
| 20260507025112 | 45 | 310 | 4.0 | 5.0 | 0.00 | 0.34 | 0.34 | 94 | 1013.6 |
| 20260507024610 | 45 | 295 | 5.0 | 6.0 | 0.00 | 0.34 | 0.34 | 94 | 1014.3 |
| 20260507024107 | 45 | 306 | 1.0 | 2.0 | 0.00 | 0.34 | 0.34 | 94 | 1013.6 |
| 20260507023602 | 45 | 305 | 3.0 | 3.0 | 0.00 | 0.34 | 0.34 | 94 | 1013.6 |
| 20260507023100 | 45 | 303 | 6.0 | 7.0 | 0.00 | 0.34 | 0.34 | 94 | 1014.0 |
| 20260507022557 | 45 | 319 | 4.0 | 6.0 | 0.00 | 0.34 | 0.34 | 94 | 1013.9 |
| 20260507022052 | 45 | 327 | 3.0 | 3.0 | 0.00 | 0.34 | 0.34 | 94 | 1014.1 |
| 20260507021549 | 45 | 351 | 3.0 | 3.0 | 0.00 | 0.34 | 0.34 | 94 | 1014.0 |
| 20260507021045 | 45 | 341 | 3.0 | 3.0 | 0.00 | 0.34 | 0.34 | 94 | 1014.0 |
| 20260507020543 | 45 | 307 | 3.0 | 3.0 | 0.00 | 0.34 | 0.34 | 94 | 1014.3 |
| 20260507020034 | 45 | 307 | 3.0 | 3.0 | 0.00 | 0.34 | 0.34 | 94 | 1013.9 |
| 20260507015532 | 45 | 324 | 1.0 | 3.0 | 0.00 | 0.34 | 0.34 | 94 | 1014.0 |
| 20260507015029 | 45 | 319 | 2.0 | 3.0 | 0.00 | 0.34 | 0.34 | 94 | 1014.1 |
| 20260507014526 | 46 | 290 | 5.0 | 8.0 | 0.00 | 0.34 | 0.34 | 94 | 1014.1 |
| 20260507014022 | 46 | 313 | 3.0 | 3.0 | 0.00 | 0.34 | 0.34 | 94 | 1013.9 |
| 20260507013518 | 46 | 303 | 4.0 | 5.0 | 0.00 | 0.34 | 0.34 | 94 | 1014.0 |
| 20260507013016 | 46 | 280 | 3.0 | 6.0 | 0.00 | 0.34 | 0.34 | 94 | 1014.0 |
| 20260507012513 | 46 | 284 | 5.0 | 6.0 | 0.00 | 0.34 | 0.34 | 94 | 1014.1 |
| 20260507012009 | 46 | 291 | 5.0 | 6.0 | 0.00 | 0.34 | 0.34 | 94 | 1014.0 |
| 20260507011506 | 46 | 296 | 2.0 | 5.0 | 0.00 | 0.34 | 0.34 | 95 | 1014.1 |
| 20260507011002 | 46 | 265 | 6.0 | 7.0 | 0.00 | 0.34 | 0.34 | 95 | 1014.0 |
| 20260507010457 | 46 | 294 | 4.0 | 5.0 | 0.00 | 0.34 | 0.34 | 95 | 1013.6 |
| 20260507005954 | 46 | 302 | 3.0 | 3.0 | 0.00 | 0.34 | 0.34 | 95 | 1013.4 |
| 20260507005451 | 46 | 300 | 1.0 | 1.0 | 0.00 | 0.34 | 0.34 | 95 | 1013.3 |
| 20260507004947 | 46 | 304 | 4.0 | 5.0 | 0.00 | 0.34 | 0.34 | 95 | 1013.5 |
| 20260507004443 | 46 | 312 | 3.0 | 3.0 | 0.00 | 0.34 | 0.34 | 95 | 1013.3 |